Grafische Darstellung der letzten 24 Stunden.
Grafische Darstellung der letzten 48 Stunden.
Grafische Darstellung der letzten 72 Stunden.
Grafische Darstellung der letzten month.

Animated web cam image


Weather report/warning/Metars

Bierset, Belgium (EBLG) 50-39N 005-27E 178M
Aug 08, 2022 - 06:20 PM EDT / 2022.08.08 2220 UTC
Wind: from the NNE (020 degrees) at 8 MPH (7 KT):0
Visibility: greater than 7 mile(s):0
Temperature: 62 F (17 C)
Dew Point: 51 F (11 C)
Relative Humidity: 67%
Pressure (altimeter): 30.30 in. Hg (1026 hPa)
ob: EBLG 082220Z 02007KT CAVOK 17/11 Q1026 NOSIG
cycle: 22
Spa / La Sauveniere, Belgium (EBSP) 50-29N 005-55E 482M
Oct 28, 2010 - 10:00 AM EDT / 2010.10.28 1400 UTC
Visibility: greater than 7 mile(s):0
Sky conditions: mostly clear
Temperature: 95 F (35 C)
Heat index: 95.2 F (35.1 C):1
Dew Point: 60 F (16 C)
Relative Humidity: 32%
Pressure (altimeter): 29.85 in. Hg (1011 hPa)
ob: EBSP 281400Z /////KT 9999 FEW030 35/16 Q1011
cycle: 14